Beechville, Kentucky
Current Conditions -  °F | °C
As of 2:35 AM on Saturday 20 Dec 2014 (Local Time) from KGLW Reporting Station
Overcast Overcast  
Wind Chill: 26°   Ceiling: 9000
Heat Index: 31°   Visibility: 7mi
Dew Point: 26°   Wind: 5mph
Humidity: 80%   Direction: 10°N
Pressure: 30.23"   Gusts: NA
Location:  36.9886°N, 85.5829°W
Report Text: KGLW 200835Z AUTO 01004KT 7SM OVC090 00/M04 A3023 RMK AO2 T10051036
Loading
Personal Weather Stations






























Interactive Weather Map New forecast layout! Learn more

10-Day Weather Forecast

Advertisements
Track Severe Weather on mobile